Time;durP1;ratioP1;P1;durP2;ratioP2;P2;SDS_P1;SDS_P2;PMS_P1;PMS_P2;Temp;Humidity;BMP_temperature;BMP_pressure;BME280_temperature;BME280_humidity;BME280_pressure;Samples;Min_cycle;Max_cycle;Signal;HPM_P1;HPM_P2
2022/07/17 00:02:04;;;;;;;1.30;1.20;;;;;;;22.63;63.97;98156.00;6153691;23;20163;-91
2022/07/17 00:04:31;;;;;;;1.30;1.20;;;;;;;22.93;64.29;98216.91;6153179;23;20159;-92
2022/07/17 00:06:57;;;;;;;1.33;1.23;;;;;;;23.31;64.31;98280.69;6152980;23;20163;-91
2022/07/17 00:09:24;;;;;;;1.50;1.40;;;;;;;22.17;64.28;98086.88;6153529;23;20231;-91
2022/07/17 00:11:51;;;;;;;1.10;1.10;;;;;;;22.93;64.31;98223.72;6152607;23;20160;-91
2022/07/17 00:14:17;;;;;;;1.10;1.10;;;;;;;23.31;64.03;98285.81;6149811;23;20155;-91
2022/07/17 00:16:44;;;;;;;1.23;1.17;;;;;;;22.08;64.57;98083.16;6153185;23;20378;-92
2022/07/17 00:19:11;;;;;;;1.30;1.20;;;;;;;22.18;64.09;98087.78;6153221;23;20199;-91
2022/07/17 00:21:38;;;;;;;1.40;1.30;;;;;;;22.81;63.85;98195.97;6153359;23;20155;-91
2022/07/17 00:24:06;;;;;;;1.10;1.10;;;;;;;22.47;64.21;98154.56;6152891;23;20186;-92
2022/07/17 00:26:33;;;;;;;1.40;1.30;;;;;;;22.15;64.25;98098.78;6153333;23;20227;-92
2022/07/17 00:29:02;;;;;;;1.27;1.23;;;;;;;22.14;64.08;98097.03;6153315;23;20206;-91
2022/07/17 00:31:29;;;;;;;1.30;1.20;;;;;;;22.10;64.25;98081.50;6152457;23;20159;-91
2022/07/17 00:33:56;;;;;;;1.47;1.37;;;;;;;22.91;64.19;98217.66;6153399;23;20183;-91
2022/07/17 00:36:23;;;;;;;1.37;1.27;;;;;;;22.89;64.04;98222.72;6153071;23;20175;-92
2022/07/17 00:38:49;;;;;;;1.20;1.20;;;;;;;22.57;64.39;98169.50;6153197;23;20201;-92
2022/07/17 00:41:16;;;;;;;1.20;1.10;;;;;;;22.41;64.17;98140.69;6152747;23;20183;-92
2022/07/17 00:43:45;;;;;;;1.50;1.40;;;;;;;22.87;64.19;98209.00;6152449;23;20151;-91
2022/07/17 00:46:12;;;;;;;1.40;1.30;;;;;;;22.15;64.05;98103.03;6153213;23;20173;-91
2022/07/17 00:48:38;;;;;;;1.40;1.30;;;;;;;22.92;64.14;98220.25;6152840;23;20198;-91
2022/07/17 00:51:07;;;;;;;1.40;1.30;;;;;;;22.91;64.17;98220.22;6153527;23;20147;-91
2022/07/17 00:53:33;;;;;;;1.60;1.50;;;;;;;22.61;64.24;98170.44;6152996;23;20167;-91
2022/07/17 00:56:01;;;;;;;1.37;1.27;;;;;;;22.25;64.08;98105.97;6128128;23;20171;-92
2022/07/17 00:58:27;;;;;;;1.23;1.23;;;;;;;22.48;64.27;98151.19;6151877;23;20226;-91
2022/07/17 01:00:54;;;;;;;1.20;1.10;;;;;;;23.30;64.26;98290.88;6150687;23;20166;-92
2022/07/17 01:03:22;;;;;;;1.40;1.30;;;;;;;22.92;64.28;98215.13;6152928;23;20171;-92
2022/07/17 01:05:49;;;;;;;1.50;1.40;;;;;;;22.16;63.98;98094.53;6152215;23;20175;-91
2022/07/17 01:08:16;;;;;;;1.50;1.40;;;;;;;23.27;64.05;98288.22;6152800;23;20194;-93
2022/07/17 01:10:43;;;;;;;1.50;1.40;;;;;;;21.14;63.95;97938.09;6104707;23;20171;-93
2022/07/17 01:13:10;;;;;;;1.50;1.40;;;;;;;21.60;64.04;98016.56;6104436;23;20215;-92
2022/07/17 01:15:39;;;;;;;1.40;1.30;;;;;;;21.91;64.50;98074.88;6104699;23;20159;-93
2022/07/17 01:18:08;;;;;;;1.40;1.30;;;;;;;21.88;64.15;98072.19;6104955;23;20242;-93
2022/07/17 01:20:35;;;;;;;2.23;1.43;;;;;;;21.95;64.28;98065.59;6128473;23;20166;-93
2022/07/17 01:23:03;;;;;;;1.30;1.30;;;;;;;21.45;64.14;97987.84;6104582;23;20163;-91
2022/07/17 01:25:30;;;;;;;1.43;1.33;;;;;;;21.19;63.81;97942.53;6128611;23;20147;-93
2022/07/17 01:27:57;;;;;;;1.50;1.40;;;;;;;20.70;64.37;97869.09;6104638;23;20197;-93
2022/07/17 01:30:25;;;;;;;1.50;1.40;;;;;;;22.11;64.10;98098.63;6128311;23;20218;-93
2022/07/17 01:32:52;;;;;;;1.70;1.60;;;;;;;21.23;63.92;97966.56;6104744;23;20174;-93
2022/07/17 01:35:19;;;;;;;1.50;1.30;;;;;;;21.37;64.14;97979.03;6128220;23;20338;-93
2022/07/17 01:37:49;;;;;;;1.30;1.20;;;;;;;23.31;64.13;98316.59;6104646;23;20183;-93
2022/07/17 01:40:17;;;;;;;1.40;1.30;;;;;;;21.65;63.91;98015.00;6105501;23;20187;-93
2022/07/17 01:42:46;;;;;;;1.23;1.23;;;;;;;21.00;64.25;97917.13;6128047;23;20159;-92
2022/07/17 01:45:13;;;;;;;1.40;1.30;;;;;;;23.30;64.03;98301.13;6127963;23;20151;-93
2022/07/17 01:47:41;;;;;;;1.57;1.47;;;;;;;22.80;63.97;98224.13;6104770;23;20337;-93
2022/07/17 01:50:08;;;;;;;1.50;1.40;;;;;;;21.93;64.09;98059.56;6128202;23;20242;-92
2022/07/17 01:52:37;;;;;;;1.57;1.47;;;;;;;21.37;63.83;97975.59;6104700;23;20170;-93
2022/07/17 01:55:05;;;;;;;1.47;1.37;;;;;;;21.91;64.30;98069.75;6104591;23;20166;-92
2022/07/17 01:57:32;;;;;;;1.70;1.60;;;;;;;23.32;64.18;98314.88;6104345;23;20190;-90
2022/07/17 02:00:00;;;;;;;1.27;1.27;;;;;;;22.90;63.93;98238.97;6127661;23;20197;-93
2022/07/17 02:02:27;;;;;;;1.57;1.47;;;;;;;21.04;64.18;97923.22;6104131;23;20151;-93
2022/07/17 02:04:54;;;;;;;1.60;1.50;;;;;;;21.94;63.98;98066.41;6103950;23;20163;-93
2022/07/17 02:07:24;;;;;;;1.57;1.47;;;;;;;22.10;64.20;98102.84;6104361;23;20159;-92
2022/07/17 02:09:51;;;;;;;1.60;1.50;;;;;;;22.20;64.30;98116.88;6104868;23;20472;-93
2022/07/17 02:12:19;;;;;;;1.50;1.40;;;;;;;22.74;64.00;98205.97;6127882;23;20155;-93
2022/07/17 02:14:46;;;;;;;1.50;1.40;;;;;;;21.39;64.50;97977.41;6103704;23;20163;-92
2022/07/17 02:17:13;;;;;;;2.13;1.40;;;;;;;21.07;64.17;97929.31;6103928;23;20165;-92
2022/07/17 02:19:40;;;;;;;1.60;1.50;;;;;;;21.96;64.10;98068.22;6104320;23;20194;-93
2022/07/17 02:22:07;;;;;;;1.47;1.37;;;;;;;21.62;63.92;98045.59;6127780;23;20159;-93
2022/07/17 02:24:34;;;;;;;1.50;1.40;;;;;;;21.53;64.13;98000.91;6128064;23;20173;-94
2022/07/17 02:27:02;;;;;;;1.53;1.43;;;;;;;20.96;64.21;97929.72;6127693;23;20195;-93
2022/07/17 02:29:29;;;;;;;1.67;1.57;;;;;;;21.13;64.07;97929.53;6103314;23;20215;-93
2022/07/17 02:31:56;;;;;;;1.57;1.47;;;;;;;22.00;63.90;98080.31;6103158;23;20159;-92
2022/07/17 02:34:23;;;;;;;1.70;1.60;;;;;;;21.96;64.01;98090.38;6103427;23;20159;-93
2022/07/17 02:36:50;;;;;;;1.50;1.40;;;;;;;21.18;63.89;97947.59;6103898;23;20157;-93
2022/07/17 02:39:17;;;;;;;1.50;1.40;;;;;;;21.96;64.15;98078.44;6127371;23;20197;-92
2022/07/17 02:41:44;;;;;;;1.60;1.50;;;;;;;22.75;63.96;98241.00;6102575;23;20174;-92
2022/07/17 02:44:12;;;;;;;1.50;1.40;;;;;;;21.06;63.98;97931.81;6127519;23;20167;-92
2022/07/17 02:46:39;;;;;;;1.30;1.20;;;;;;;21.19;63.90;97939.13;6103546;23;20161;-92
2022/07/17 02:49:06;;;;;;;1.50;1.40;;;;;;;21.32;63.91;97967.75;6103745;23;20186;-92
2022/07/17 02:51:33;;;;;;;1.50;1.40;;;;;;;21.22;64.03;97960.56;6104144;23;20219;-93
2022/07/17 02:54:00;;;;;;;1.63;1.53;;;;;;;22.82;64.01;98210.53;6103536;23;20153;-94
2022/07/17 02:56:27;;;;;;;1.60;1.50;;;;;;;21.64;64.01;98020.94;6127261;23;20170;-93
2022/07/17 02:58:54;;;;;;;1.50;1.40;;;;;;;22.75;64.09;98202.56;6103195;23;20235;-93
2022/07/17 03:01:21;;;;;;;1.60;1.40;;;;;;;21.95;63.88;98083.50;6127509;23;20195;-93
2022/07/17 03:03:48;;;;;;;2.13;1.30;;;;;;;21.46;64.05;97986.16;6127020;23;20180;-93
2022/07/17 03:06:15;;;;;;;1.50;1.40;;;;;;;22.93;64.04;98245.09;6103666;23;20163;-91
2022/07/17 03:08:43;;;;;;;1.60;1.50;;;;;;;22.90;64.10;98241.53;6103582;23;20244;-92
2022/07/17 03:11:10;;;;;;;1.60;1.50;;;;;;;21.93;64.13;98069.81;6151259;23;20222;-93
2022/07/17 03:13:37;;;;;;;1.57;1.47;;;;;;;21.63;64.10;98014.09;6102505;23;20169;-93
2022/07/17 03:16:04;;;;;;;1.50;1.40;;;;;;;22.41;63.93;98133.84;6103562;23;20219;-93
2022/07/17 03:18:31;;;;;;;1.50;1.40;;;;;;;22.86;64.01;98242.28;6103616;23;20207;-93
2022/07/17 03:20:58;;;;;;;1.70;1.60;;;;;;;21.20;64.01;97949.38;6103618;23;20159;-93
2022/07/17 03:23:25;;;;;;;1.90;1.80;;;;;;;22.74;64.15;98214.50;6103352;23;20206;-93
2022/07/17 03:25:53;;;;;;;1.63;1.53;;;;;;;21.37;64.02;97973.03;6103659;23;20543;-93
2022/07/17 03:28:20;;;;;;;1.53;1.43;;;;;;;21.97;64.10;98081.88;6103601;23;20179;-92
2022/07/17 03:30:47;;;;;;;1.60;1.50;;;;;;;22.36;64.07;98165.25;6127084;23;20162;-93
2022/07/17 03:33:14;;;;;;;1.70;1.60;;;;;;;21.94;63.96;98071.53;6103071;23;20177;-94
2022/07/17 03:35:41;;;;;;;1.53;1.43;;;;;;;20.74;64.15;97879.47;6103618;23;20163;-93
2022/07/17 03:38:09;;;;;;;1.70;1.60;;;;;;;21.98;63.89;98073.38;6103850;23;20264;-93
2022/07/17 03:40:36;;;;;;;1.70;1.60;;;;;;;21.33;64.25;97964.38;6103186;23;20179;-93
2022/07/17 03:43:04;;;;;;;1.50;1.40;;;;;;;21.28;63.95;97975.25;6102859;23;20182;-91
2022/07/17 03:45:31;;;;;;;1.50;1.40;;;;;;;21.96;64.11;98092.94;6127432;23;20190;-93
2022/07/17 03:47:58;;;;;;;1.57;1.47;;;;;;;21.05;63.92;97924.97;6103266;23;20238;-93
2022/07/17 03:50:25;;;;;;;1.50;1.40;;;;;;;21.79;64.03;98040.28;6103359;23;20167;-93
2022/07/17 03:52:52;;;;;;;1.23;1.20;;;;;;;21.27;63.85;97959.06;6103140;23;20155;-93
2022/07/17 03:55:19;;;;;;;1.60;1.50;;;;;;;22.47;63.90;98166.53;6127040;23;20162;-93
2022/07/17 03:57:46;;;;;;;1.43;1.33;;;;;;;22.76;64.11;98235.94;6102949;23;20191;-93
2022/07/17 04:00:17;;;;;;;1.53;1.43;;;;;;;21.69;64.00;98041.59;6103419;23;20218;-93
2022/07/17 04:02:44;;;;;;;1.47;1.37;;;;;;;21.94;64.38;98097.13;6103411;23;20175;-91
2022/07/17 04:05:11;;;;;;;1.60;1.50;;;;;;;21.94;64.11;98067.31;6079186;23;20170;-93
2022/07/17 04:07:41;;;;;;;1.60;1.50;;;;;;;21.07;64.32;97952.31;6079398;23;20211;-93
2022/07/17 04:10:12;;;;;;;1.50;1.40;;;;;;;20.83;63.63;97892.59;6079672;23;20169;-93
2022/07/17 04:12:40;;;;;;;1.53;1.43;;;;;;;22.89;64.00;98261.16;6102976;23;20375;-92
2022/07/17 04:15:08;;;;;;;1.60;1.50;;;;;;;22.19;64.05;98126.22;6078851;23;20163;-92
2022/07/17 04:17:35;;;;;;;1.70;1.60;;;;;;;21.46;63.95;98009.16;6079106;23;20175;-93
2022/07/17 04:20:03;;;;;;;1.67;1.57;;;;;;;21.07;64.07;97931.88;6079527;23;20191;-93
2022/07/17 04:22:30;;;;;;;1.70;1.60;;;;;;;21.79;63.87;98059.03;6079211;23;20159;-92
2022/07/17 04:24:57;;;;;;;1.50;1.40;;;;;;;21.98;63.79;98084.50;6080859;23;20219;-93
2022/07/17 04:27:24;;;;;;;1.80;1.70;;;;;;;21.58;64.14;98022.41;6081175;23;20179;-93
2022/07/17 04:29:52;;;;;;;1.53;1.43;;;;;;;20.95;64.18;97928.84;6081054;23;20163;-93
2022/07/17 04:32:19;;;;;;;1.50;1.40;;;;;;;21.32;63.85;97985.63;6080915;23;20170;-93
2022/07/17 04:34:46;;;;;;;1.50;1.40;;;;;;;21.25;64.08;97978.56;6081284;23;20208;-92
2022/07/17 04:37:14;;;;;;;1.47;1.37;;;;;;;20.74;63.47;97888.81;6105384;23;20161;-93
2022/07/17 04:39:41;;;;;;;1.43;1.33;;;;;;;21.97;64.02;98094.69;6104561;23;20196;-93
2022/07/17 04:42:08;;;;;;;1.70;1.60;;;;;;;22.82;64.05;98240.41;6080400;23;20190;-92
2022/07/17 04:44:36;;;;;;;1.63;1.53;;;;;;;22.83;64.21;98275.47;6080398;23;20171;-93
2022/07/17 04:47:03;;;;;;;1.87;1.70;;;;;;;23.30;64.03;98332.78;6104873;23;20167;-92
2022/07/17 04:49:30;;;;;;;1.60;1.50;;;;;;;21.48;63.92;98010.97;6080752;23;20179;-92
2022/07/17 04:51:57;;;;;;;1.93;1.73;;;;;;;21.43;64.08;98006.50;6081197;23;20154;-92
2022/07/17 04:54:24;;;;;;;1.70;1.60;;;;;;;21.67;64.09;98056.88;6080258;23;20163;-92
2022/07/17 04:56:51;;;;;;;1.60;1.50;;;;;;;21.76;64.17;98079.41;6115187;23;20167;-92
2022/07/17 04:59:18;;;;;;;1.53;1.43;;;;;;;21.63;63.82;98054.16;6104037;23;20187;-93
2022/07/17 05:01:45;;;;;;;1.63;1.53;;;;;;;21.15;63.92;97957.72;6104581;23;20154;-93
2022/07/17 05:04:13;;;;;;;1.40;1.30;;;;;;;21.94;63.98;98087.78;6104472;23;20159;-92
2022/07/17 05:06:40;;;;;;;1.70;1.60;;;;;;;21.73;63.68;98060.47;6104247;23;20220;-93
2022/07/17 05:09:07;;;;;;;1.50;1.40;;;;;;;21.70;63.97;98040.75;6103931;23;20183;-93
2022/07/17 05:11:34;;;;;;;1.60;1.50;;;;;;;21.71;63.95;98066.41;6128086;23;20167;-93
2022/07/17 05:14:02;;;;;;;1.67;1.57;;;;;;;23.17;63.60;98301.47;6104212;23;20175;-93
2022/07/17 05:16:29;;;;;;;1.50;1.40;;;;;;;22.74;63.79;98239.28;6104344;23;20163;-93
2022/07/17 05:18:56;;;;;;;1.60;1.50;;;;;;;21.24;63.77;97965.72;6127642;23;20186;-93
2022/07/17 05:21:23;;;;;;;1.50;1.40;;;;;;;21.11;63.75;97959.28;6104366;23;20210;-92
2022/07/17 05:23:50;;;;;;;1.60;1.50;;;;;;;21.73;64.11;98078.41;6104581;23;20202;-93
2022/07/17 05:26:18;;;;;;;1.60;1.50;;;;;;;21.58;63.90;98025.84;6104499;23;20159;-92
2022/07/17 05:28:44;;;;;;;1.63;1.53;;;;;;;21.63;63.88;98049.91;6104391;23;20179;-92
2022/07/17 05:31:11;;;;;;;2.47;1.70;;;;;;;21.44;63.98;98024.44;6103897;23;20155;-92
2022/07/17 05:33:39;;;;;;;1.53;1.43;;;;;;;22.87;64.06;98257.69;6104387;23;20163;-93
2022/07/17 05:36:06;;;;;;;1.80;1.70;;;;;;;21.18;63.63;97976.59;6127834;23;20175;-93
2022/07/17 05:38:33;;;;;;;1.60;1.50;;;;;;;21.95;64.29;98098.88;6104437;23;20179;-93
2022/07/17 05:41:01;;;;;;;1.37;1.27;;;;;;;21.94;63.90;98115.03;6151850;23;20233;-92
2022/07/17 05:43:28;;;;;;;1.50;1.40;;;;;;;21.83;64.09;98077.94;6127493;23;20175;-93
2022/07/17 05:45:58;;;;;;;1.63;1.53;;;;;;;22.37;64.33;98190.91;6103778;23;20163;-93
2022/07/17 05:48:25;;;;;;;1.60;1.50;;;;;;;22.56;64.11;98221.53;6104717;23;20183;-93
2022/07/17 05:50:53;;;;;;;1.60;1.50;;;;;;;22.82;63.84;98260.91;6103342;23;20169;-93
2022/07/17 05:53:20;;;;;;;1.73;1.60;;;;;;;21.41;63.90;98018.38;6103758;23;20155;-93
2022/07/17 07:08:40;;;;;;;1.87;1.70;;;;;;;18.31;63.67;97488.06;6103716;23;20223;-92
2022/07/17 07:11:18;;;;;;;1.47;1.40;;;;;;;21.42;64.18;98049.13;6101324;23;20179;-93
2022/07/17 07:13:45;;;;;;;1.50;1.40;;;;;;;21.82;63.77;98100.13;6075446;23;20211;-93
2022/07/17 07:16:12;;;;;;;1.60;1.50;;;;;;;20.26;64.31;97830.75;6051455;23;20164;-92
2022/07/17 07:18:39;;;;;;;1.67;1.57;;;;;;;19.21;64.14;97694.66;6075620;23;20184;-91
2022/07/17 07:21:06;;;;;;;1.47;1.37;;;;;;;20.42;63.81;97867.13;6075201;23;20203;-91
2022/07/17 07:23:34;;;;;;;1.70;1.60;;;;;;;20.79;63.78;97957.16;6052472;23;20144;-92
2022/07/17 07:26:00;;;;;;;1.50;1.40;;;;;;;21.29;64.09;98056.25;6050439;23;20199;-90
2022/07/17 07:28:27;;;;;;;1.60;1.50;;;;;;;21.10;63.94;98006.09;6051798;23;20179;-94
2022/07/17 07:30:54;;;;;;;1.50;1.40;;;;;;;19.71;63.62;97746.03;6051632;23;20170;-91
2022/07/17 07:33:21;;;;;;;1.50;1.40;;;;;;;21.72;63.92;98133.78;6051734;23;20172;-93
2022/07/17 07:35:47;;;;;;;1.60;1.50;;;;;;;20.47;64.06;97923.47;6051723;23;20184;-91
2022/07/17 07:38:14;;;;;;;1.60;1.50;;;;;;;20.81;64.23;97944.44;6052021;23;20207;-92
2022/07/17 07:40:41;;;;;;;1.63;1.50;;;;;;;20.44;63.51;97923.38;6052110;23;20198;-89
2022/07/17 07:43:08;;;;;;;1.50;1.40;;;;;;;21.68;63.83;98127.69;6074037;23;20167;-89
2022/07/17 07:45:36;;;;;;;1.60;1.50;;;;;;;19.37;63.49;97689.44;6075587;23;20183;-92
2022/07/17 07:48:03;;;;;;;1.57;1.47;;;;;;;21.35;63.95;98025.81;6074953;23;20176;-92
2022/07/17 07:50:30;;;;;;;1.50;1.40;;;;;;;18.03;63.61;97460.63;6051784;23;20187;-93
2022/07/17 07:52:56;;;;;;;1.37;1.30;;;;;;;20.63;63.77;97930.97;6098715;23;20468;-92
2022/07/17 07:55:23;;;;;;;1.50;1.40;;;;;;;19.16;63.66;97680.88;6098802;23;20160;-95
2022/07/17 07:57:50;;;;;;;1.50;1.40;;;;;;;18.45;63.31;97526.84;6052006;23;20165;-94
2022/07/17 08:00:17;;;;;;;1.47;1.37;;;;;;;18.16;63.49;97462.00;6100479;23;20179;-92
2022/07/17 08:02:46;;;;;;;1.70;1.60;;;;;;;19.26;63.97;97680.44;6077703;23;20167;-92
2022/07/17 08:05:13;;;;;;;1.50;1.40;;;;;;;18.29;63.63;97499.84;6100404;23;20164;-93
2022/07/17 08:07:40;;;;;;;1.50;1.40;;;;;;;20.59;63.91;97896.75;6099129;23;21280;-93
2022/07/17 08:10:07;;;;;;;1.60;1.50;;;;;;;20.58;63.80;97901.81;6096589;23;20172;-93
2022/07/17 08:12:33;;;;;;;1.67;1.57;;;;;;;21.71;64.01;98094.53;6099406;23;20148;-93
2022/07/17 08:15:13;;;;;;;1.50;1.40;;;;;;;20.64;64.34;97928.47;6123206;23;20175;-90
2022/07/17 08:17:39;;;;;;;1.40;1.30;;;;;;;21.84;63.95;98162.44;6099408;23;20192;-93
2022/07/17 08:20:07;;;;;;;1.50;1.40;;;;;;;18.14;63.84;97477.19;6098906;23;20211;-93
2022/07/17 08:22:40;;;;;;;1.50;1.40;;;;;;;23.12;63.88;98338.94;6100196;23;20371;-92
2022/07/17 08:25:26;;;;;;;1.40;1.30;;;;;;;20.43;63.89;97871.44;6102744;23;20170;-93
2022/07/17 08:27:53;;;;;;;1.67;1.50;;;;;;;23.31;63.98;98377.25;6123368;23;20199;-93
2022/07/17 08:30:20;;;;;;;1.67;1.57;;;;;;;21.78;63.77;98102.47;6123499;23;20211;-92
2022/07/17 08:32:46;;;;;;;1.50;1.40;;;;;;;23.30;64.34;98373.81;6075193;23;20204;-94
2022/07/17 08:35:13;;;;;;;1.50;1.40;;;;;;;21.18;63.97;98045.63;6122926;23;20159;-92
2022/07/17 08:37:44;;;;;;;1.30;1.30;;;;;;;23.31;63.82;98370.44;6099094;23;20191;-88
2022/07/17 08:40:25;;;;;;;1.60;1.50;;;;;;;20.42;63.82;97882.47;6123340;23;20222;-93
2022/07/17 08:42:53;;;;;;;1.23;1.20;;;;;;;22.49;63.92;98222.09;6097768;23;20166;-92
2022/07/17 08:45:20;;;;;;;1.60;1.50;;;;;;;22.50;63.85;98222.97;6122714;23;20192;-90
2022/07/17 08:47:50;;;;;;;1.60;1.50;;;;;;;21.83;63.81;98124.88;6099318;23;20166;-93
2022/07/17 08:50:17;;;;;;;1.60;1.50;;;;;;;23.32;64.46;98368.75;6098750;23;20148;-92
2022/07/17 08:52:43;;;;;;;1.40;1.30;;;;;;;21.13;63.58;97987.44;6122628;23;20168;-90
2022/07/17 08:55:12;;;;;;;1.50;1.40;;;;;;;20.48;63.31;97905.69;6122443;23;20166;-93
2022/07/17 08:57:39;;;;;;;1.47;1.40;;;;;;;19.09;63.63;97674.66;6075288;23;20186;-93
2022/07/17 09:00:14;;;;;;;1.57;1.23;;;;;;;21.97;63.81;98167.22;6100041;23;20211;-93
2022/07/17 09:02:52;;;;;;;1.60;1.50;;;;;;;21.87;63.71;98124.16;6075033;23;20183;-92
2022/07/17 09:05:23;;;;;;;1.67;1.50;;;;;;;19.77;63.63;97764.13;6098685;23;20193;-93
2022/07/17 09:07:49;;;;;;;1.73;1.63;;;;;;;21.72;63.55;98080.06;6074670;23;20164;-92
2022/07/17 09:10:16;;;;;;;1.57;1.47;;;;;;;20.99;63.79;97946.03;6122513;23;20171;-94
2022/07/17 09:12:44;;;;;;;1.57;1.47;;;;;;;21.84;63.95;98095.06;6122120;23;20164;-90
2022/07/17 09:15:19;;;;;;;1.50;1.40;;;;;;;21.83;63.85;98124.00;6121978;23;20164;-93
2022/07/17 09:17:53;;;;;;;1.50;1.40;;;;;;;19.84;63.60;97776.34;6074714;23;20164;-93
2022/07/17 09:20:20;;;;;;;1.70;1.60;;;;;;;21.65;63.75;98113.91;6099360;23;20195;-91
2022/07/17 09:22:58;;;;;;;1.57;1.47;;;;;;;18.44;64.57;97542.91;6098375;23;20149;-92
2022/07/17 09:25:39;;;;;;;1.43;1.33;;;;;;;20.35;63.83;97854.97;6122109;23;20168;-92
2022/07/17 09:28:07;;;;;;;1.50;1.40;;;;;;;22.49;63.86;98237.47;6098240;23;20183;-92
2022/07/17 09:30:35;;;;;;;1.50;1.40;;;;;;;20.67;63.78;97928.59;6074805;23;20168;-94
2022/07/17 09:33:02;;;;;;;1.60;1.50;;;;;;;20.46;63.83;97870.69;6098369;23;20527;-92
2022/07/17 09:35:28;;;;;;;1.40;1.30;;;;;;;20.39;63.54;97890.00;6122768;23;20160;-93
2022/07/17 09:37:55;;;;;;;1.40;1.30;;;;;;;20.11;63.72;97796.94;6121788;23;20179;-92
2022/07/17 09:43:12;;;;;;;1.20;1.20;;;;;;;20.20;63.86;97866.25;6121749;23;20164;-92
2022/07/17 09:45:39;;;;;;;1.43;1.33;;;;;;;23.32;63.81;98353.34;6097750;23;20179;-94
2022/07/17 09:48:06;;;;;;;1.20;1.20;;;;;;;22.07;63.90;98135.16;6121314;23;20211;-93
2022/07/17 09:50:33;;;;;;;1.40;1.30;;;;;;;22.89;63.84;98283.38;6098342;23;20174;-91
2022/07/17 09:52:59;;;;;;;1.60;1.50;;;;;;;21.87;63.84;98095.16;6097720;23;20171;-92
2022/07/17 09:55:29;;;;;;;1.50;1.40;;;;;;;19.61;63.51;97738.84;6121462;23;20391;-93
2022/07/17 09:58:14;;;;;;;1.50;1.40;;;;;;;19.36;63.61;97705.53;6102516;23;20190;-93
2022/07/17 10:00:41;;;;;;;1.43;1.33;;;;;;;21.82;63.79;98094.13;6073646;23;20191;-92
2022/07/17 10:03:08;;;;;;;1.37;1.27;;;;;;;20.42;63.57;97887.56;6098190;23;20159;-92
2022/07/17 10:05:35;;;;;;;1.30;1.30;;;;;;;22.50;63.83;98202.50;6120663;23;20196;-92
2022/07/17 10:08:09;;;;;;;1.40;1.30;;;;;;;23.31;63.98;98347.38;6121442;23;20179;-92
2022/07/17 10:10:35;;;;;;;1.50;1.40;;;;;;;20.64;63.37;97882.50;6097987;23;20152;-92
2022/07/17 10:13:02;;;;;;;1.20;1.20;;;;;;;22.49;63.95;98236.59;6074037;23;20176;-93
2022/07/17 10:15:29;;;;;;;1.43;1.33;;;;;;;19.99;63.80;97790.53;6097474;23;20159;-91
2022/07/17 10:18:14;;;;;;;1.40;1.30;;;;;;;20.72;63.77;97887.91;6074444;23;20163;-93
2022/07/17 10:20:40;;;;;;;1.57;1.40;;;;;;;20.14;63.98;97832.81;6097889;23;20183;-92
2022/07/17 10:23:14;;;;;;;1.40;1.30;;;;;;;19.40;63.82;97652.19;6073664;23;20163;-89
2022/07/17 10:25:40;;;;;;;1.43;1.33;;;;;;;21.46;63.97;98034.72;6074012;23;20155;-93
2022/07/17 10:28:07;;;;;;;1.40;1.30;;;;;;;22.33;63.85;98168.59;6074156;23;20184;-92
2022/07/17 10:30:34;;;;;;;1.57;1.47;;;;;;;21.32;63.93;97995.00;6050822;23;20166;-93
2022/07/17 10:33:05;;;;;;;1.60;1.50;;;;;;;22.29;63.95;98187.19;6097950;23;20164;-92
2022/07/17 10:35:45;;;;;;;1.20;1.20;;;;;;;20.84;63.92;97942.84;6073582;23;20159;-93
2022/07/17 10:38:13;;;;;;;1.20;1.20;;;;;;;21.52;63.75;98048.63;6075101;23;20187;-92
2022/07/17 10:40:39;;;;;;;1.47;1.40;;;;;;;23.33;64.71;98332.88;6050678;23;20203;-93
2022/07/17 10:43:06;;;;;;;1.50;1.40;;;;;;;20.60;63.44;97889.97;6097212;23;20164;-92
2022/07/17 10:45:42;;;;;;;1.47;1.37;;;;;;;19.62;63.73;97680.25;6050538;23;20159;-93
2022/07/17 10:48:14;;;;;;;1.30;1.30;;;;;;;20.52;63.76;97833.47;6075611;23;20203;-90
2022/07/17 10:50:48;;;;;;;1.30;1.30;;;;;;;21.66;63.85;98078.16;6074606;23;20164;-92
2022/07/17 10:53:24;;;;;;;1.63;1.40;;;;;;;20.46;63.79;97825.59;6075450;23;20199;-92
2022/07/17 10:55:55;;;;;;;1.63;1.53;;;;;;;22.02;64.02;98116.22;6073983;23;20154;-92
2022/07/17 10:58:27;;;;;;;1.40;1.30;;;;;;;22.42;64.18;98230.38;6073926;23;20199;-93
2022/07/17 11:01:15;;;;;;;1.53;1.43;;;;;;;23.33;63.89;98326.91;6074568;23;20187;-93
2022/07/17 11:03:44;;;;;;;1.17;1.17;;;;;;;20.99;63.82;97940.06;6097764;23;20163;-92
2022/07/17 11:06:11;;;;;;;1.30;1.30;;;;;;;23.33;63.82;98321.78;6051019;23;20159;-93
2022/07/17 11:08:57;;;;;;;1.30;1.30;;;;;;;20.34;63.86;97809.81;6101196;23;20187;-92
2022/07/17 11:11:50;;;;;;;1.37;1.33;;;;;;;23.32;63.89;98326.00;6122630;23;20144;-92
2022/07/17 11:14:24;;;;;;;1.60;1.50;;;;;;;22.50;63.96;98175.19;6121202;23;20152;-93
2022/07/17 11:16:55;;;;;;;1.40;1.30;;;;;;;21.54;63.76;98041.00;6121981;23;20148;-94
2022/07/17 11:19:24;;;;;;;1.50;1.40;;;;;;;23.33;63.99;98320.06;6097633;23;20208;-93
2022/07/17 11:21:51;;;;;;;1.40;1.30;;;;;;;21.61;63.95;98023.41;6122600;23;20197;-93
2022/07/17 11:24:18;;;;;;;1.50;1.40;;;;;;;23.32;63.91;98313.19;6097140;23;20163;-91
2022/07/17 11:26:49;;;;;;;1.40;1.30;;;;;;;23.32;63.92;98309.75;6122188;23;20166;-91
2022/07/17 11:29:15;;;;;;;1.50;1.40;;;;;;;21.67;63.73;98018.50;6073932;23;20186;-92
2022/07/17 11:31:42;;;;;;;1.50;1.40;;;;;;;20.02;63.88;97731.97;6097655;23;20200;-92
2022/07/17 11:34:11;;;;;;;1.20;1.20;;;;;;;20.36;63.72;97792.88;6123170;23;20180;-90
2022/07/17 11:36:39;;;;;;;1.37;1.33;;;;;;;19.44;64.00;97653.16;6100414;23;20160;-92
2022/07/17 11:39:11;;;;;;;1.40;1.30;;;;;;;22.30;63.82;98129.19;6100125;23;20180;-92
2022/07/17 11:41:40;;;;;;;1.47;1.37;;;;;;;21.18;63.93;97937.38;6100330;23;20176;-93
2022/07/17 11:44:15;;;;;;;1.47;1.37;;;;;;;21.18;63.82;97983.38;6123101;23;20163;-90
2022/07/17 11:46:43;;;;;;;1.37;1.27;;;;;;;20.37;63.87;97781.00;6100254;23;20159;-93
2022/07/17 11:49:10;;;;;;;1.47;1.37;;;;;;;20.93;63.84;97922.78;6123635;23;20186;-91
2022/07/17 11:51:41;;;;;;;1.43;1.33;;;;;;;22.21;64.05;98114.38;6100157;23;20223;-91
2022/07/17 11:54:12;;;;;;;1.50;1.40;;;;;;;21.14;63.74;97928.72;6099455;23;20163;-91
2022/07/17 11:56:40;;;;;;;1.40;1.30;;;;;;;20.38;63.98;97780.16;6123730;23;20156;-93
2022/07/17 11:59:07;;;;;;;1.40;1.30;;;;;;;20.78;64.00;97903.47;6075880;23;20248;-92
2022/07/17 12:01:39;;;;;;;1.50;1.40;;;;;;;21.64;63.96;98030.31;6075823;23;20246;-92
2022/07/17 12:04:07;;;;;;;1.40;1.30;;;;;;;19.39;63.66;97621.56;6076246;23;20180;-93
2022/07/17 12:06:41;;;;;;;1.20;1.20;;;;;;;21.69;63.82;98009.22;6123990;23;20148;-93
2022/07/17 12:09:08;;;;;;;1.60;1.50;;;;;;;21.50;63.69;97980.34;6123337;23;20220;-90
2022/07/17 12:11:48;;;;;;;1.50;1.40;;;;;;;18.26;63.70;97410.69;6124117;23;20160;-93
2022/07/17 12:14:15;;;;;;;1.40;1.30;;;;;;;20.18;63.96;97741.13;6123255;23;20187;-93
2022/07/17 12:16:41;;;;;;;1.30;1.30;;;;;;;21.33;63.51;97969.50;6123286;23;20176;-93
2022/07/17 12:19:11;;;;;;;1.30;1.20;;;;;;;20.02;63.90;97752.41;6099092;23;20176;-90
2022/07/17 12:21:53;;;;;;;1.50;1.40;;;;;;;21.30;63.89;97988.97;6076114;23;20262;-92
2022/07/17 12:24:31;;;;;;;1.20;1.20;;;;;;;21.98;63.75;98070.81;6075960;23;20148;-93
2022/07/17 12:27:01;;;;;;;1.33;1.30;;;;;;;21.16;63.88;97916.88;6123186;23;20148;-92
2022/07/17 12:29:28;;;;;;;1.50;1.40;;;;;;;20.86;63.98;97850.94;6076225;23;20580;-93
2022/07/17 12:32:01;;;;;;;1.20;1.20;;;;;;;23.33;64.14;98281.56;6099512;23;20187;-92
2022/07/17 12:34:28;;;;;;;1.40;1.30;;;;;;;23.33;63.97;98280.72;6123897;23;20160;-92
2022/07/17 12:36:54;;;;;;;1.20;1.20;;;;;;;20.94;63.79;97876.00;6123178;23;20208;-93
2022/07/17 12:39:21;;;;;;;1.50;1.40;;;;;;;22.49;63.96;98132.44;6099329;23;20215;-93
2022/07/17 12:41:48;;;;;;;1.50;1.40;;;;;;;20.58;63.87;97802.22;6122684;23;20246;-93
2022/07/17 12:44:15;;;;;;;1.20;1.20;;;;;;;23.12;64.08;98236.38;6098635;23;20159;-92
2022/07/17 12:46:42;;;;;;;1.33;1.23;;;;;;;22.49;63.87;98126.44;6123205;23;20195;-92
2022/07/17 12:49:09;;;;;;;1.30;1.20;;;;;;;20.17;63.92;97721.53;6123549;23;20208;-90
2022/07/17 12:51:36;;;;;;;1.10;1.10;;;;;;;22.00;63.96;98054.72;6123331;23;20163;-92
2022/07/17 12:54:03;;;;;;;1.40;1.30;;;;;;;22.51;63.92;98135.09;6123428;23;20195;-92
2022/07/17 12:56:30;;;;;;;1.60;1.50;;;;;;;21.25;64.20;97924.00;6122843;23;20180;-92